createdAt,value
2019-02-04T00:01:54.422Z,15.30
2019-02-04T00:04:23.685Z,15.08
2019-02-04T00:06:52.948Z,15.03
2019-02-04T00:09:21.567Z,16.75
2019-02-04T00:11:51.282Z,17.35
2019-02-04T00:14:20.865Z,16.15
2019-02-04T00:16:50.498Z,20.02
2019-02-04T00:19:19.480Z,14.30
2019-02-04T00:21:48.430Z,15.30
2019-02-04T00:24:16.999Z,14.53
2019-02-04T00:26:51.688Z,13.80
2019-02-04T00:29:16.182Z,13.78
2019-02-04T00:31:45.111Z,14.90
2019-02-04T00:34:14.004Z,14.45
2019-02-04T00:36:42.565Z,16.73
2019-02-04T00:39:11.443Z,15.18
2019-02-04T00:41:40.613Z,15.43
2019-02-04T00:44:09.165Z,16.42
2019-02-04T00:46:37.736Z,16.97
2019-02-04T00:49:06.635Z,18.07
2019-02-04T00:51:35.229Z,14.03
2019-02-04T00:54:04.101Z,15.05
2019-02-04T00:56:33.414Z,13.85
2019-02-04T00:59:01.996Z,12.90
2019-02-04T01:01:30.555Z,15.38
2019-02-04T01:03:59.105Z,14.40
2019-02-04T01:06:27.694Z,13.53
2019-02-04T01:08:56.314Z,16.45
2019-02-04T01:11:25.305Z,17.67
2019-02-04T01:13:53.904Z,16.35
2019-02-04T01:16:22.480Z,17.15
2019-02-04T01:18:51.029Z,17.05
2019-02-04T01:21:19.619Z,17.90
2019-02-04T01:23:48.175Z,18.25
2019-02-04T01:26:17.144Z,22.17
2019-02-04T01:28:45.792Z,20.95
2019-02-04T01:31:14.350Z,23.10
2019-02-04T01:33:42.906Z,21.42
2019-02-04T01:36:11.500Z,22.58
2019-02-04T01:38:40.078Z,22.58
2019-02-04T01:41:09.115Z,21.12
2019-02-04T01:43:37.697Z,19.98
2019-02-04T01:46:06.269Z,17.00
2019-02-04T01:48:34.876Z,15.80
2019-02-04T01:51:03.433Z,16.70
2019-02-04T01:53:31.998Z,16.57
2019-02-04T01:56:00.596Z,17.75
2019-02-04T01:58:29.159Z,17.12
2019-02-04T02:00:57.768Z,18.37
2019-02-04T02:03:26.710Z,19.17
2019-02-04T02:05:55.302Z,18.90
2019-02-04T02:08:23.872Z,17.40
2019-02-04T02:10:52.435Z,17.62
2019-02-04T02:16:03.066Z,17.48
2019-02-04T02:18:32.407Z,18.75
2019-02-04T02:21:01.987Z,19.10
2019-02-04T02:23:31.904Z,18.92
2019-02-04T02:26:01.612Z,19.62
2019-02-04T02:28:31.288Z,19.27
2019-02-04T02:31:00.200Z,22.00
2019-02-04T02:33:30.300Z,18.05
2019-02-04T02:36:00.851Z,19.32
2019-02-04T02:38:30.938Z,19.67
2019-02-04T02:41:00.556Z,19.12
2019-02-04T02:43:30.273Z,24.72
2019-02-04T02:45:59.647Z,25.55
2019-02-04T02:48:29.401Z,28.12
2019-02-04T02:50:59.277Z,30.68
2019-02-04T02:53:28.533Z,25.88
2019-02-04T02:55:58.047Z,24.77
2019-02-04T02:58:27.931Z,34.55
2019-02-04T03:00:57.535Z,30.48
2019-02-04T03:03:27.176Z,26.95
2019-02-04T03:05:56.414Z,22.93
2019-02-04T03:08:25.737Z,23.85
2019-02-04T03:10:55.492Z,27.55
2019-02-04T03:13:25.900Z,24.12
2019-02-04T03:15:55.595Z,24.40
2019-02-04T03:18:25.361Z,23.87
2019-02-04T03:20:55.027Z,29.12
2019-02-04T03:23:24.415Z,31.52
2019-02-04T03:25:54.284Z,26.73
2019-02-04T03:28:23.641Z,27.22
2019-02-04T03:30:55.114Z,25.15
2019-02-04T03:33:24.812Z,27.35
2019-02-04T03:35:54.539Z,25.75
2019-02-04T03:38:24.654Z,30.80
2019-02-04T03:40:54.752Z,26.95
2019-02-04T03:43:24.541Z,24.65
2019-02-04T03:45:54.167Z,26.07
2019-02-04T03:48:23.609Z,25.50
2019-02-04T03:50:53.940Z,25.12
2019-02-04T03:53:22.572Z,27.15
2019-02-04T03:55:51.456Z,28.75
2019-02-04T03:58:20.496Z,27.00
2019-02-04T04:00:50.490Z,25.72
2019-02-04T04:03:20.237Z,27.65
2019-02-04T04:05:49.745Z,27.25
2019-02-04T04:08:19.489Z,25.25
2019-02-04T04:10:49.064Z,27.60
2019-02-04T04:13:17.636Z,24.40
2019-02-04T04:15:47.339Z,25.30
2019-02-04T04:18:16.796Z,31.17
2019-02-04T04:20:45.377Z,28.27
2019-02-04T04:23:14.655Z,30.48
2019-02-04T04:25:44.326Z,28.15
2019-02-04T04:28:14.033Z,31.68
2019-02-04T04:30:44.072Z,30.45
2019-02-04T04:33:13.665Z,34.83
2019-02-04T04:35:42.626Z,34.08
2019-02-04T04:38:11.957Z,36.25
2019-02-04T04:40:40.852Z,37.15
2019-02-04T04:43:10.212Z,34.25
2019-02-04T04:45:38.825Z,36.25
2019-02-04T04:48:07.416Z,34.48
2019-02-04T04:50:36.645Z,30.60
2019-02-04T04:53:05.231Z,33.85
2019-02-04T04:55:35.268Z,32.55
2019-02-04T04:58:07.728Z,34.33
2019-02-04T05:00:37.598Z,34.48
2019-02-04T05:03:06.568Z,32.45
2019-02-04T05:05:35.603Z,32.48
2019-02-04T05:08:06.293Z,35.08
2019-02-04T05:10:35.556Z,45.63
2019-02-04T05:13:06.186Z,57.35
2019-02-04T05:15:35.882Z,59.08
2019-02-04T05:18:05.694Z,46.10
2019-02-04T05:20:34.641Z,46.65
2019-02-04T05:23:03.566Z,43.00
2019-02-04T05:25:32.542Z,36.93
2019-02-04T05:28:01.106Z,39.42
2019-02-04T05:30:30.166Z,38.33
2019-02-04T05:32:59.902Z,37.75
2019-02-04T05:35:29.369Z,37.90
2019-02-04T05:37:59.091Z,34.25
2019-02-04T05:40:29.141Z,39.73
2019-02-04T05:42:59.018Z,33.23
2019-02-04T05:45:28.630Z,38.15
2019-02-04T05:47:58.449Z,35.17
2019-02-04T05:50:28.150Z,31.60
2019-02-04T05:52:57.025Z,31.27
2019-02-04T05:55:26.178Z,33.40
2019-02-04T05:57:55.849Z,35.55
2019-02-04T06:00:33.281Z,34.55
2019-02-04T06:03:02.620Z,35.70
2019-02-04T06:05:31.558Z,34.08
2019-02-04T06:08:00.899Z,33.35
2019-02-04T06:10:29.950Z,32.05
2019-02-04T06:12:58.979Z,35.08
2019-02-04T06:15:28.335Z,29.95
2019-02-04T06:17:57.941Z,35.52
2019-02-04T06:20:27.743Z,34.10
2019-02-04T06:22:58.164Z,32.85
2019-02-04T06:25:30.623Z,35.80
2019-02-04T06:28:03.357Z,32.10
2019-02-04T06:30:34.026Z,30.80
2019-02-04T06:33:03.948Z,30.70
2019-02-04T06:35:32.914Z,29.32
2019-02-04T06:38:02.180Z,28.38
2019-02-04T06:40:31.227Z,27.58
2019-02-04T06:43:00.206Z,28.87
2019-02-04T06:45:29.878Z,26.25
2019-02-04T06:47:58.914Z,26.93
2019-02-04T06:50:28.405Z,26.50
2019-02-04T06:52:57.655Z,27.22
2019-02-04T06:55:30.125Z,27.62
2019-02-04T06:58:00.039Z,24.35
2019-02-04T07:00:30.215Z,23.80
2019-02-04T07:03:00.037Z,25.32
2019-02-04T07:05:29.980Z,28.00
2019-02-04T07:07:58.876Z,26.23
2019-02-04T07:10:27.470Z,26.87
2019-02-04T07:13:11.099Z,25.80
2019-02-04T07:15:40.705Z,28.05
2019-02-04T07:18:09.288Z,29.92
2019-02-04T07:20:38.262Z,29.37
2019-02-04T07:23:07.302Z,28.65
2019-02-04T07:25:36.581Z,27.30
2019-02-04T07:28:06.059Z,29.60
2019-02-04T07:30:35.741Z,28.50
2019-02-04T07:33:08.528Z,31.68
2019-02-04T07:35:37.426Z,29.50
2019-02-04T07:38:06.284Z,27.05
2019-02-04T07:40:34.864Z,26.02
2019-02-04T07:43:03.445Z,26.42
2019-02-04T07:45:32.421Z,29.00
2019-02-04T07:48:00.974Z,28.47
2019-02-04T07:50:29.534Z,29.72
2019-02-04T07:52:58.118Z,28.47
2019-02-04T07:55:26.671Z,29.52
2019-02-04T07:57:57.268Z,26.40
2019-02-04T08:00:30.468Z,27.75
2019-02-04T08:03:00.144Z,24.98
2019-02-04T08:05:28.770Z,25.32
2019-02-04T08:07:59.464Z,24.57
2019-02-04T08:10:29.104Z,28.25
2019-02-04T08:13:01.467Z,27.20
2019-02-04T08:15:33.836Z,27.15
2019-02-04T08:18:02.453Z,24.18
2019-02-04T08:20:31.044Z,25.32
2019-02-04T08:22:59.610Z,24.72
2019-02-04T08:25:28.188Z,24.92
2019-02-04T08:27:57.042Z,23.80
2019-02-04T08:30:30.813Z,22.30
2019-02-04T08:32:59.395Z,20.57
2019-02-04T08:35:27.982Z,21.48
2019-02-04T08:37:56.578Z,20.05
2019-02-04T08:40:25.158Z,17.87
2019-02-04T08:42:54.079Z,17.92
2019-02-04T08:45:22.764Z,18.45
2019-02-04T08:47:51.326Z,18.62
2019-02-04T08:50:20.234Z,19.00
2019-02-04T08:52:48.847Z,20.02
2019-02-04T08:55:17.427Z,21.68
2019-02-04T08:57:45.977Z,19.92
2019-02-04T09:00:17.017Z,20.57
2019-02-04T09:02:45.588Z,17.00
2019-02-04T09:05:14.501Z,18.17
2019-02-04T09:07:43.147Z,19.05
2019-02-04T09:10:14.997Z,16.35
2019-02-04T09:12:43.712Z,14.20
2019-02-04T09:15:12.914Z,16.57
2019-02-04T09:17:41.538Z,14.45
2019-02-04T09:20:11.614Z,16.15
2019-02-04T09:22:40.178Z,16.07
2019-02-04T09:25:10.962Z,14.45
2019-02-04T09:27:39.543Z,14.93
2019-02-04T09:30:11.988Z,15.15
2019-02-04T09:32:40.544Z,18.30
2019-02-04T09:35:10.731Z,15.98
2019-02-04T09:37:45.358Z,15.68
2019-02-04T09:40:38.566Z,15.48
2019-02-04T09:43:08.333Z,15.48
2019-02-04T09:45:39.643Z,15.48
2019-02-04T09:48:12.477Z,15.88
2019-02-04T09:50:41.954Z,14.85
2019-02-04T09:53:11.714Z,15.05
2019-02-04T09:55:41.461Z,12.85
2019-02-04T09:58:10.339Z,16.20
2019-02-04T10:00:39.469Z,14.35
2019-02-04T10:03:08.116Z,14.93
2019-02-04T10:05:36.850Z,14.65
2019-02-04T10:08:05.871Z,14.28
2019-02-04T10:10:35.074Z,14.60
2019-02-04T10:13:06.555Z,14.45
2019-02-04T10:15:38.280Z,15.60
2019-02-04T10:18:11.296Z,14.73
2019-02-04T10:23:09.618Z,15.50
2019-02-04T10:25:40.580Z,16.10
2019-02-04T10:28:10.883Z,15.63
2019-02-04T10:30:39.487Z,15.10
2019-02-04T10:33:08.992Z,13.95
2019-02-04T10:35:38.525Z,14.05
2019-02-04T10:38:08.075Z,13.78
2019-02-04T10:40:36.618Z,14.40
2019-02-04T10:43:05.906Z,13.88
2019-02-04T10:45:34.562Z,13.60
2019-02-04T10:48:03.703Z,13.83
2019-02-04T10:50:45.765Z,14.10
2019-02-04T10:53:09.052Z,17.32
2019-02-04T10:55:38.195Z,12.98
2019-02-04T10:58:09.131Z,12.53
2019-02-04T11:00:39.933Z,13.22
2019-02-04T11:03:08.870Z,12.43
2019-02-04T11:05:40.161Z,12.68
2019-02-04T11:08:12.107Z,11.73
2019-02-04T11:10:41.721Z,13.22
2019-02-04T11:13:16.113Z,14.95
2019-02-04T11:15:47.007Z,13.68
2019-02-04T11:18:16.399Z,14.95
2019-02-04T11:20:57.163Z,13.03
2019-02-04T11:23:15.838Z,12.60
2019-02-04T11:25:45.062Z,13.08
2019-02-04T11:28:18.498Z,13.80
2019-02-04T11:30:53.568Z,12.37
2019-02-04T11:33:22.574Z,12.98
2019-02-04T11:35:51.170Z,12.90
2019-02-04T11:38:19.938Z,13.25
2019-02-04T11:40:52.731Z,13.13
2019-02-04T11:43:21.895Z,12.63
2019-02-04T11:45:51.062Z,12.47
2019-02-04T11:48:19.919Z,13.08
2019-02-04T11:50:48.892Z,14.40
2019-02-04T11:53:17.479Z,14.45
2019-02-04T11:55:46.309Z,13.05
2019-02-04T11:58:14.869Z,13.70
2019-02-04T12:00:43.459Z,13.50
2019-02-04T12:03:13.268Z,13.03
2019-02-04T12:05:43.707Z,11.90
2019-02-04T12:08:13.801Z,12.75
2019-02-04T12:10:54.801Z,13.38
2019-02-04T12:13:23.367Z,13.00
2019-02-04T12:15:52.381Z,12.28
2019-02-04T12:18:20.955Z,12.35
2019-02-04T12:20:49.526Z,12.35
2019-02-04T12:23:19.574Z,12.37
2019-02-04T12:25:50.467Z,12.00
2019-02-04T12:28:19.053Z,12.13
2019-02-04T12:30:47.894Z,12.30
2019-02-04T12:33:16.465Z,12.98
2019-02-04T12:35:45.321Z,11.90
2019-02-04T12:38:14.246Z,11.40
2019-02-04T12:40:42.817Z,12.58
2019-02-04T12:43:11.760Z,11.60
2019-02-04T12:45:40.481Z,11.85
2019-02-04T12:48:09.738Z,11.00
2019-02-04T12:50:39.371Z,11.88
2019-02-04T12:53:10.286Z,10.95
2019-02-04T12:55:39.852Z,11.48
2019-02-04T12:58:08.466Z,10.80
2019-02-04T13:00:38.525Z,10.58
2019-02-04T13:03:11.827Z,9.98
2019-02-04T13:08:18.454Z,10.38
2019-02-04T13:10:48.488Z,9.38
2019-02-04T13:13:21.357Z,10.15
2019-02-04T13:15:50.876Z,9.93
2019-02-04T13:18:20.371Z,10.20
2019-02-04T13:20:49.805Z,9.70
2019-02-04T13:23:18.632Z,10.35
2019-02-04T13:25:47.561Z,11.95
2019-02-04T13:28:20.603Z,10.23
2019-02-04T13:30:49.883Z,11.50
2019-02-04T13:33:20.368Z,9.58
2019-02-04T13:35:49.523Z,10.75
2019-02-04T13:38:18.862Z,10.10
2019-02-04T13:40:48.085Z,9.78
2019-02-04T13:43:17.495Z,8.60
2019-02-04T13:45:46.373Z,9.60
2019-02-04T13:48:15.497Z,9.68
2019-02-04T13:50:44.331Z,8.90
2019-02-04T13:53:14.424Z,8.78
2019-02-04T13:55:44.955Z,9.38
2019-02-04T13:58:15.234Z,9.88
2019-02-04T14:00:44.609Z,9.55
2019-02-04T14:03:17.757Z,8.73
2019-02-04T14:05:47.245Z,10.55
2019-02-04T14:08:17.724Z,9.03
2019-02-04T14:10:46.967Z,9.00
2019-02-04T14:13:18.124Z,9.25
2019-02-04T14:15:47.836Z,9.58
2019-02-04T14:18:17.138Z,10.10
2019-02-04T14:20:50.158Z,8.78
2019-02-04T14:23:19.893Z,10.05
2019-02-04T14:25:49.196Z,10.08
2019-02-04T14:28:19.083Z,8.93
2019-02-04T14:30:48.285Z,10.40
2019-02-04T14:33:17.258Z,9.28
2019-02-04T14:35:47.244Z,10.60
2019-02-04T14:38:17.811Z,11.80
2019-02-04T14:40:46.458Z,10.88
2019-02-04T14:43:45.963Z,11.50
2019-02-04T14:46:40.566Z,12.07
2019-02-04T14:49:58.544Z,13.20
2019-02-04T14:52:53.195Z,11.15
2019-02-04T14:55:56.512Z,11.10
2019-02-04T14:58:33.509Z,12.13
2019-02-04T15:01:34.356Z,11.25
2019-02-04T15:04:35.089Z,11.73
2019-02-04T15:07:58.802Z,10.82
2019-02-04T15:10:44.069Z,12.40
2019-02-04T15:13:30.968Z,11.00
2019-02-04T15:16:21.490Z,11.22
2019-02-04T15:19:26.515Z,12.33
2019-02-04T15:22:19.254Z,11.00
2019-02-04T15:25:43.635Z,11.95
2019-02-04T15:28:38.044Z,12.13
2019-02-04T15:31:34.365Z,11.75
2019-02-04T15:34:39.096Z,11.93
2019-02-04T15:37:34.920Z,10.95
2019-02-04T15:40:29.658Z,20.90
2019-02-04T15:43:55.242Z,19.17
2019-02-04T15:47:00.709Z,11.93
2019-02-04T15:50:13.497Z,11.83
2019-02-04T15:52:45.636Z,11.53
2019-02-04T15:55:15.895Z,10.32
2019-02-04T15:57:44.484Z,11.45
2019-02-04T16:00:13.448Z,9.83
2019-02-04T16:02:42.092Z,11.08
2019-02-04T16:05:10.788Z,10.63
2019-02-04T16:07:39.664Z,11.03
2019-02-04T16:10:10.992Z,10.43
2019-02-04T16:12:39.544Z,10.65
2019-02-04T16:15:09.215Z,12.53
2019-02-04T16:17:37.764Z,14.68
2019-02-04T16:20:10.991Z,10.58
2019-02-04T16:25:08.237Z,10.10
2019-02-04T16:27:38.165Z,10.40
2019-02-04T16:30:09.839Z,10.55
2019-02-04T16:32:38.400Z,10.03
2019-02-04T16:35:08.706Z,9.68
2019-02-04T16:37:37.678Z,10.60
2019-02-04T16:40:10.119Z,9.10
2019-02-04T16:42:37.594Z,8.65
2019-02-04T16:45:06.773Z,10.10
2019-02-04T16:47:36.053Z,10.30
2019-02-04T16:50:05.449Z,10.40
2019-02-04T16:52:34.109Z,8.83
2019-02-04T16:55:03.573Z,8.88
2019-02-04T16:57:32.850Z,8.95
2019-02-04T17:00:02.264Z,9.40
2019-02-04T17:02:32.098Z,9.75
2019-02-04T17:05:01.668Z,10.23
2019-02-04T17:07:31.355Z,10.20
2019-02-04T17:10:01.209Z,10.95
2019-02-04T17:12:30.513Z,12.20
2019-02-04T17:15:00.382Z,11.45
2019-02-04T17:17:30.015Z,11.38
2019-02-04T17:19:59.856Z,11.48
2019-02-04T17:22:28.798Z,12.70
2019-02-04T17:24:58.203Z,13.05
2019-02-04T17:27:28.384Z,12.53
2019-02-04T17:29:57.729Z,12.45
2019-02-04T17:32:27.845Z,11.05
2019-02-04T17:34:58.051Z,12.82
2019-02-04T17:37:27.693Z,11.78
2019-02-04T17:39:56.976Z,12.03
2019-02-04T17:42:26.619Z,15.68
2019-02-04T17:44:56.669Z,13.55
2019-02-04T17:47:26.319Z,10.10
2019-02-04T17:49:55.853Z,11.93
2019-02-04T17:52:24.889Z,14.68
2019-02-04T17:54:54.227Z,13.80
2019-02-04T17:57:23.882Z,12.58
2019-02-04T17:59:53.262Z,13.35
2019-02-04T18:02:22.947Z,13.50
2019-02-04T18:04:52.672Z,15.28
2019-02-04T18:07:23.172Z,12.45
2019-02-04T18:09:52.343Z,12.80
2019-02-04T18:12:21.625Z,12.82
2019-02-04T18:14:51.256Z,13.50
2019-02-04T18:17:20.752Z,14.00
2019-02-04T18:19:49.336Z,12.65
2019-02-04T18:22:18.319Z,12.40
2019-02-04T18:24:46.990Z,12.37
2019-02-04T18:27:16.688Z,11.35
2019-02-04T18:29:46.499Z,13.58
2019-02-04T18:32:16.346Z,12.28
2019-02-04T18:34:46.563Z,12.18
2019-02-04T18:37:16.377Z,11.73
2019-02-04T18:39:45.799Z,13.43
2019-02-04T18:42:15.160Z,13.20
2019-02-04T18:44:44.994Z,13.35
2019-02-04T18:47:14.862Z,12.07
2019-02-04T18:49:44.531Z,15.83
2019-02-04T18:52:14.800Z,15.15
2019-02-04T18:54:44.680Z,12.82
2019-02-04T18:57:14.158Z,10.90
2019-02-04T18:59:45.422Z,11.68
2019-02-04T19:02:14.735Z,11.22
2019-02-04T19:04:44.008Z,13.80
2019-02-04T19:07:14.863Z,11.20
2019-02-04T19:09:44.569Z,11.20
2019-02-04T19:12:14.839Z,10.78
2019-02-04T19:14:43.980Z,11.12
2019-02-04T19:17:13.987Z,13.05
2019-02-04T19:19:42.973Z,14.60
2019-02-04T19:22:12.297Z,11.38
2019-02-04T19:24:40.882Z,11.93
2019-02-04T19:27:10.073Z,11.57
2019-02-04T19:29:39.380Z,10.82
2019-02-04T19:32:08.681Z,11.33
2019-02-04T19:34:38.772Z,9.98
2019-02-04T19:37:07.722Z,10.65
2019-02-04T19:39:37.428Z,11.45
2019-02-04T19:42:06.401Z,10.93
2019-02-04T19:44:35.032Z,9.73
2019-02-04T19:47:04.086Z,9.95
2019-02-04T19:49:33.882Z,9.35
2019-02-04T19:52:03.394Z,10.82
2019-02-04T19:54:33.027Z,8.83
2019-02-04T19:57:02.346Z,8.30
2019-02-04T19:59:32.707Z,9.08
2019-02-04T20:02:02.256Z,9.13
2019-02-04T20:04:30.808Z,9.45
2019-02-04T20:07:00.631Z,10.10
2019-02-04T20:09:30.355Z,9.28
2019-02-04T20:11:59.592Z,9.50
2019-02-04T20:14:28.888Z,9.38
2019-02-04T20:16:58.200Z,10.25
2019-02-04T20:19:28.068Z,9.48
2019-02-04T20:21:56.627Z,8.93
2019-02-04T20:24:32.820Z,10.20
2019-02-04T20:26:56.242Z,9.75
2019-02-04T20:29:25.684Z,10.08
2019-02-04T20:31:54.590Z,10.68
2019-02-04T20:34:23.277Z,9.75
2019-02-04T20:36:51.908Z,8.18
2019-02-04T20:39:21.170Z,9.25
2019-02-04T20:41:50.863Z,7.80
2019-02-04T20:44:20.479Z,9.90
2019-02-04T20:46:51.572Z,9.85
2019-02-04T20:49:21.033Z,9.60
2019-02-04T20:51:49.983Z,8.68
2019-02-04T20:54:19.814Z,9.93
2019-02-04T20:56:50.294Z,8.90
2019-02-04T20:59:19.937Z,9.03
2019-02-04T21:01:49.241Z,9.20
2019-02-04T21:04:18.871Z,9.75
2019-02-04T21:06:55.669Z,9.70
2019-02-04T21:09:19.143Z,10.20
2019-02-04T21:11:49.128Z,8.95
2019-02-04T21:14:18.887Z,8.30
2019-02-04T21:16:48.363Z,8.50
2019-02-04T21:19:18.038Z,10.28
2019-02-04T21:21:48.060Z,8.98
2019-02-04T21:24:17.764Z,7.92
2019-02-04T21:26:47.150Z,9.05
2019-02-04T21:29:16.799Z,8.80
2019-02-04T21:31:46.491Z,8.98
2019-02-04T21:34:17.492Z,8.73
2019-02-04T21:36:47.179Z,12.35
2019-02-04T21:39:16.852Z,9.83
2019-02-04T21:41:46.572Z,9.40
2019-02-04T21:44:15.625Z,9.38
2019-02-04T21:46:45.062Z,9.30
2019-02-04T21:49:14.376Z,9.33
2019-02-04T21:51:43.727Z,8.85
2019-02-04T21:54:12.890Z,8.85
2019-02-04T21:56:42.286Z,8.25
2019-02-04T21:59:11.703Z,9.05
2019-02-04T22:01:42.081Z,9.90
2019-02-04T22:04:12.095Z,9.95
2019-02-04T22:06:41.458Z,7.60
2019-02-04T22:09:11.056Z,8.40
2019-02-04T22:11:50.598Z,8.38
2019-02-04T22:14:19.625Z,9.10
2019-02-04T22:16:48.247Z,8.35
2019-02-04T22:19:17.556Z,8.88
2019-02-04T22:21:46.077Z,7.45
2019-02-04T22:24:15.074Z,6.55
2019-02-04T22:26:43.658Z,8.10
2019-02-04T22:29:13.141Z,7.22
2019-02-04T22:31:44.839Z,6.80
2019-02-04T22:34:13.488Z,7.37
2019-02-04T22:36:42.044Z,8.50
2019-02-04T22:39:11.018Z,7.08
2019-02-04T22:41:39.877Z,7.58
2019-02-04T22:44:08.454Z,6.50
2019-02-04T22:46:37.353Z,7.58
2019-02-04T22:49:06.254Z,6.95
2019-02-04T22:51:34.838Z,7.22
2019-02-04T22:54:03.409Z,6.17
2019-02-04T22:56:31.951Z,6.72
2019-02-04T22:59:00.556Z,7.83
2019-02-04T23:01:43.150Z,5.97
2019-02-04T23:04:12.081Z,6.47
2019-02-04T23:06:42.212Z,6.30
2019-02-04T23:09:10.797Z,6.67
2019-02-04T23:11:39.375Z,6.03
2019-02-04T23:14:07.931Z,8.63
2019-02-04T23:16:36.471Z,6.40
2019-02-04T23:19:05.452Z,7.53
2019-02-04T23:21:34.006Z,7.08
2019-02-04T23:24:02.550Z,6.90
2019-02-04T23:26:31.134Z,6.30
2019-02-04T23:28:59.726Z,6.45
2019-02-04T23:31:28.260Z,6.78
2019-02-04T23:33:56.837Z,7.12
2019-02-04T23:36:25.382Z,7.15
2019-02-04T23:38:53.977Z,7.12
2019-02-04T23:41:22.570Z,5.97
2019-02-04T23:43:51.113Z,5.45
2019-02-04T23:46:19.671Z,6.65
2019-02-04T23:48:48.247Z,6.05
2019-02-04T23:51:16.828Z,6.40
2019-02-04T23:53:45.803Z,6.58
2019-02-04T23:56:15.203Z,5.90
2019-02-04T23:58:44.860Z,6.60
